Time;durP1;ratioP1;P1;durP2;ratioP2;P2;SDS_P1;SDS_P2;PMS_P1;PMS_P2;Temp;Humidity;BMP_temperature;BMP_pressure;BME280_temperature;BME280_humidity;BME280_pressure;Samples;Min_cycle;Max_cycle;Signal;HPM_P1;HPM_P2
2022/07/19 00:00:23;;;;;;;5.18;3.05;;;19.50;78.60;;;;;;2071138;28;20595;-75
2022/07/19 00:01:24;;;;;;;3.75;3.20;;;19.50;78.70;;;;;;2079953;28;20033;-74
2022/07/19 00:02:24;;;;;;;6.78;3.20;;;19.50;78.80;;;;;;2079771;28;20021;-74
2022/07/19 00:03:25;;;;;;;3.72;2.63;;;19.50;78.90;;;;;;2079902;28;20104;-74
2022/07/19 00:04:26;;;;;;;4.35;3.25;;;19.50;78.90;;;;;;2079706;28;20769;-74
2022/07/19 00:05:26;;;;;;;3.90;2.97;;;19.50;78.90;;;;;;2081249;28;20476;-74
2022/07/19 00:06:27;;;;;;;7.05;3.10;;;19.50;78.90;;;;;;2081154;28;20037;-74
2022/07/19 00:07:28;;;;;;;3.85;3.30;;;19.40;78.90;;;;;;2080436;28;20078;-74
2022/07/19 00:08:29;;;;;;;5.57;3.00;;;19.40;79.70;;;;;;2080398;28;20060;-74
2022/07/19 00:09:29;;;;;;;3.40;3.00;;;19.40;78.90;;;;;;2081380;28;20036;-74
2022/07/19 00:10:30;;;;;;;4.55;3.20;;;19.40;78.80;;;;;;2081336;28;20448;-74
2022/07/19 00:11:31;;;;;;;3.53;2.88;;;19.40;78.90;;;;;;2081445;28;20482;-74
2022/07/19 00:12:32;;;;;;;4.07;2.80;;;19.40;78.80;;;;;;2081296;28;20106;-74
2022/07/19 00:13:33;;;;;;;4.45;3.10;;;19.40;78.80;;;;;;2081391;28;20037;-75
2022/07/19 00:14:34;;;;;;;4.28;2.80;;;19.40;78.90;;;;;;2081267;28;20083;-75
2022/07/19 00:15:34;;;;;;;5.45;3.17;;;19.40;78.80;;;;;;2080808;28;20030;-75
2022/07/19 00:16:35;;;;;;;4.13;3.22;;;19.40;78.80;;;;;;2072054;28;20519;-74
2022/07/19 00:17:42;;;;;;;5.20;3.10;;;19.30;78.80;;;;;;2072832;28;20038;-74
2022/07/19 00:18:43;;;;;;;5.53;2.90;;;19.30;78.80;;;;;;2080660;28;20045;-74
2022/07/19 00:19:44;;;;;;;4.75;3.10;;;19.30;78.80;;;;;;2081244;28;20053;-75
2022/07/19 00:20:44;;;;;;;5.43;2.90;;;19.30;78.90;;;;;;2081242;28;20495;-74
2022/07/19 00:21:45;;;;;;;4.43;3.00;;;19.30;79.00;;;;;;2081316;28;20045;-74
2022/07/19 00:22:46;;;;;;;4.40;3.05;;;19.30;78.90;;;;;;2081092;28;20563;-73
2022/07/19 00:23:46;;;;;;;3.95;2.90;;;19.30;79.00;;;;;;2081325;28;20760;-75
2022/07/19 00:24:47;;;;;;;3.80;2.97;;;19.30;79.00;;;;;;2081065;28;20100;-73
2022/07/19 00:25:48;;;;;;;4.53;2.90;;;19.30;79.00;;;;;;2081058;28;20583;-74
2022/07/19 00:26:49;;;;;;;4.50;3.13;;;19.30;79.10;;;;;;2080886;28;20799;-73
2022/07/19 00:27:49;;;;;;;3.60;2.90;;;19.30;79.30;;;;;;2081160;28;20025;-75
2022/07/19 00:28:50;;;;;;;3.97;3.00;;;19.30;79.40;;;;;;2081137;28;20063;-73
2022/07/19 00:29:51;;;;;;;3.70;3.20;;;19.30;79.40;;;;;;2072306;28;20030;-73
2022/07/19 00:30:51;;;;;;;5.88;3.20;;;19.20;79.40;;;;;;2072374;28;20034;-74
2022/07/19 00:31:52;;;;;;;4.10;3.20;;;19.20;79.50;;;;;;2064190;28;20038;-73
2022/07/19 00:32:52;;;;;;;4.07;2.97;;;19.20;79.60;;;;;;2064120;28;20045;-73
2022/07/19 00:33:53;;;;;;;4.72;2.80;;;19.20;79.70;;;;;;2081022;28;20057;-73
2022/07/19 00:34:54;;;;;;;3.90;3.00;;;19.20;79.70;;;;;;2081060;28;20060;-73
2022/07/19 00:35:54;;;;;;;3.83;2.90;;;19.20;80.00;;;;;;2081200;28;20049;-73
2022/07/19 00:36:55;;;;;;;4.85;2.95;;;19.10;80.10;;;;;;2072145;28;20098;-73
2022/07/19 00:37:56;;;;;;;4.60;3.00;;;19.10;80.10;;;;;;2072580;28;20041;-73
2022/07/19 00:38:56;;;;;;;5.78;3.42;;;19.10;80.20;;;;;;2080485;28;20052;-73
2022/07/19 00:39:57;;;;;;;4.95;3.40;;;19.10;80.30;;;;;;2080550;28;20029;-76
2022/07/19 00:41:01;;;;;;;3.55;2.70;;;19.10;80.30;;;;;;2081268;28;20488;-74
2022/07/19 00:42:02;;;;;;;5.13;3.22;;;19.10;80.50;;;;;;2072521;28;20180;-75
2022/07/19 00:43:04;;;;;;;4.55;3.08;;;19.10;80.60;;;;;;2072389;28;20038;-75
2022/07/19 00:44:04;;;;;;;3.20;2.90;;;19.10;80.70;;;;;;2081310;28;20044;-73
2022/07/19 00:45:06;;;;;;;4.80;2.83;;;19.00;80.80;;;;;;2081390;28;20052;-74
2022/07/19 00:46:14;;;;;;;4.57;3.28;;;19.00;81.00;;;;;;2072467;28;21069;-74
2022/07/19 00:47:15;;;;;;;4.57;2.90;;;19.00;81.80;;;;;;2073244;28;20109;-74
2022/07/19 00:48:16;;;;;;;4.63;3.10;;;19.00;81.10;;;;;;2072173;28;20038;-74
2022/07/19 00:49:17;;;;;;;4.45;3.20;;;19.00;81.30;;;;;;2072527;28;20041;-74
2022/07/19 00:50:18;;;;;;;4.22;3.03;;;19.00;81.50;;;;;;2088768;28;20024;-74
2022/07/19 00:51:19;;;;;;;3.90;2.90;;;19.00;81.60;;;;;;2087904;28;20112;-74
2022/07/19 00:52:22;;;;;;;4.05;2.97;;;18.90;81.60;;;;;;2080441;28;20022;-74
2022/07/19 00:53:24;;;;;;;4.22;3.28;;;18.90;81.60;;;;;;2080330;28;20014;-74
2022/07/19 00:54:25;;;;;;;5.35;3.25;;;18.90;81.70;;;;;;2080297;28;20537;-74
2022/07/19 00:55:29;;;;;;;5.25;2.92;;;18.90;81.70;;;;;;2080205;28;20109;-74
2022/07/19 00:56:33;;;;;;;5.10;3.30;;;18.90;81.90;;;;;;2071301;28;20017;-73
2022/07/19 00:57:35;;;;;;;5.05;3.20;;;18.90;81.90;;;;;;2071544;28;20033;-74
2022/07/19 00:58:37;;;;;;;3.92;3.15;;;18.90;82.10;;;;;;2079854;28;20101;-74
2022/07/19 00:59:38;;;;;;;4.65;3.10;;;18.90;82.10;;;;;;2080517;28;20014;-74
2022/07/19 01:00:40;;;;;;;4.80;3.10;;;18.90;82.10;;;;;;2080154;28;20107;-74
2022/07/19 01:01:41;;;;;;;3.90;2.90;;;18.80;82.10;;;;;;2080074;28;20018;-74
2022/07/19 01:02:41;;;;;;;4.30;2.97;;;18.80;82.20;;;;;;2080312;28;20507;-74
2022/07/19 01:03:42;;;;;;;3.35;3.00;;;18.80;82.30;;;;;;2080510;28;20030;-74
2022/07/19 01:04:43;;;;;;;4.35;3.10;;;18.80;82.40;;;;;;2080409;28;20025;-74
2022/07/19 01:05:46;;;;;;;4.93;3.30;;;18.80;82.60;;;;;;2080144;28;20053;-74
2022/07/19 01:06:47;;;;;;;4.00;2.92;;;18.80;82.60;;;;;;2080236;28;20052;-75
2022/07/19 01:07:48;;;;;;;3.28;2.90;;;18.80;82.70;;;;;;2081185;28;20045;-74
2022/07/19 01:08:49;;;;;;;4.70;3.03;;;18.80;82.80;;;;;;2072185;28;20480;-74
2022/07/19 01:09:51;;;;;;;3.65;3.20;;;18.70;82.80;;;;;;2072523;28;20045;-74
2022/07/19 01:10:52;;;;;;;4.90;3.10;;;18.70;82.90;;;;;;2080689;28;20610;-74
2022/07/19 01:11:53;;;;;;;4.22;3.00;;;18.70;83.10;;;;;;2080306;28;20041;-74
2022/07/19 01:12:54;;;;;;;6.20;3.08;;;18.70;83.20;;;;;;2080342;28;20029;-74
2022/07/19 01:13:54;;;;;;;3.83;3.00;;;18.70;83.30;;;;;;2088828;28;20028;-74
2022/07/19 01:14:56;;;;;;;4.95;3.08;;;18.70;83.60;;;;;;2088729;28;20041;-75
2022/07/19 01:15:57;;;;;;;5.32;3.20;;;18.70;83.60;;;;;;2088558;28;20044;-74
2022/07/19 01:16:59;;;;;;;5.03;3.85;;;18.60;83.60;;;;;;2088268;28;20104;-74
2022/07/19 01:18:00;;;;;;;5.32;3.25;;;18.60;83.80;;;;;;2088791;28;20044;-75
2022/07/19 01:19:01;;;;;;;4.30;2.90;;;18.60;83.80;;;;;;2088520;28;20036;-75
2022/07/19 01:20:01;;;;;;;3.50;3.20;;;18.60;83.90;;;;;;2088775;28;20039;-74
2022/07/19 01:21:04;;;;;;;4.88;3.10;;;18.50;83.90;;;;;;2088530;28;20028;-74
2022/07/19 01:22:04;;;;;;;3.75;2.75;;;18.60;84.30;;;;;;2088711;28;20602;-74
2022/07/19 01:23:05;;;;;;;4.35;3.00;;;18.60;84.40;;;;;;2088760;28;20104;-74
2022/07/19 01:24:06;;;;;;;5.47;3.28;;;18.50;84.40;;;;;;2088618;28;20025;-74
2022/07/19 01:25:07;;;;;;;5.60;2.92;;;18.50;84.60;;;;;;2088750;28;20032;-74
2022/07/19 01:26:08;;;;;;;4.88;2.97;;;18.50;84.60;;;;;;2088367;28;20051;-74
2022/07/19 01:27:08;;;;;;;5.05;3.28;;;18.50;84.60;;;;;;2088164;28;20479;-75
2022/07/19 01:28:09;;;;;;;5.50;3.30;;;18.50;84.50;;;;;;2087731;28;20056;-75
2022/07/19 01:29:15;;;;;;;4.68;3.30;;;18.50;84.60;;;;;;2087424;28;20028;-74
2022/07/19 01:30:22;;;;;;;5.55;3.28;;;18.50;84.80;;;;;;2080207;28;20026;-74
2022/07/19 01:31:22;;;;;;;3.97;3.40;;;18.40;84.90;;;;;;2080301;28;20068;-74
2022/07/19 01:32:23;;;;;;;3.97;3.20;;;18.40;84.90;;;;;;2088173;28;20087;-74
2022/07/19 01:33:24;;;;;;;4.72;3.30;;;18.40;85.00;;;;;;2088684;28;20675;-74
2022/07/19 01:34:24;;;;;;;5.22;3.17;;;18.40;85.00;;;;;;2079829;28;20041;-74
2022/07/19 01:35:25;;;;;;;5.13;3.20;;;18.40;85.30;;;;;;2079771;28;20486;-74
2022/07/19 01:36:26;;;;;;;6.28;3.40;;;18.30;85.30;;;;;;2088771;28;20549;-74
2022/07/19 01:37:27;;;;;;;6.10;3.47;;;18.30;85.50;;;;;;2088333;28;20037;-74
2022/07/19 01:38:27;;;;;;;4.72;3.42;;;18.30;85.70;;;;;;2079858;28;20037;-75
2022/07/19 01:39:28;;;;;;;4.65;3.40;;;18.20;85.90;;;;;;2080018;28;20014;-75
2022/07/19 01:40:29;;;;;;;3.55;3.25;;;18.20;86.10;;;;;;2083665;28;20052;-74
2022/07/19 01:41:29;;;;;;;3.85;3.10;;;18.20;86.20;;;;;;2071654;28;20022;-74
2022/07/19 01:42:30;;;;;;;6.13;3.35;;;18.20;86.40;;;;;;2071782;28;20064;-74
2022/07/19 01:43:31;;;;;;;4.13;3.33;;;18.10;86.40;;;;;;2080295;28;20543;-73
2022/07/19 01:44:32;;;;;;;8.05;3.55;;;18.10;86.60;;;;;;2080859;28;20121;-73
2022/07/19 01:45:32;;;;;;;4.03;3.28;;;18.10;86.80;;;;;;2080853;28;20034;-74
2022/07/19 01:46:33;;;;;;;6.53;3.50;;;18.10;86.80;;;;;;2071709;28;20500;-74
2022/07/19 01:47:34;;;;;;;4.10;3.30;;;18.10;86.90;;;;;;2071978;28;20468;-73
2022/07/19 01:48:35;;;;;;;4.43;3.40;;;18.00;87.10;;;;;;2080351;28;20029;-73
2022/07/19 01:49:36;;;;;;;3.53;3.08;;;18.00;87.30;;;;;;2080850;28;20029;-73
2022/07/19 01:50:37;;;;;;;4.38;3.17;;;18.00;87.40;;;;;;2080588;28;20031;-74
2022/07/19 01:51:37;;;;;;;4.35;3.20;;;18.00;87.60;;;;;;2080985;28;20079;-73
2022/07/19 01:52:38;;;;;;;7.03;3.50;;;17.90;87.70;;;;;;2080812;28;20036;-73
2022/07/19 01:53:39;;;;;;;4.82;3.10;;;17.90;87.80;;;;;;2080028;28;20081;-73
2022/07/19 01:54:40;;;;;;;4.97;3.58;;;17.90;88.00;;;;;;2071802;28;20795;-73
2022/07/19 01:55:41;;;;;;;4.20;3.40;;;17.90;88.10;;;;;;2072155;28;20022;-73
2022/07/19 01:56:42;;;;;;;3.80;3.30;;;17.90;88.30;;;;;;2071576;28;20551;-74
2022/07/19 01:57:43;;;;;;;4.72;3.25;;;17.90;88.50;;;;;;2063865;28;20027;-74
2022/07/19 01:58:44;;;;;;;3.88;3.20;;;17.80;88.60;;;;;;2071426;28;20034;-74
2022/07/19 01:59:44;;;;;;;5.45;3.33;;;17.80;88.90;;;;;;2080114;28;20437;-74
2022/07/19 02:00:45;;;;;;;5.55;3.58;;;17.80;89.10;;;;;;2080427;28;20567;-74
2022/07/19 02:01:46;;;;;;;4.60;3.80;;;17.80;89.30;;;;;;2071328;28;20403;-74
2022/07/19 02:02:47;;;;;;;3.92;3.40;;;17.70;89.50;;;;;;2071123;28;20045;-74
2022/07/19 02:03:47;;;;;;;4.35;3.70;;;17.70;89.70;;;;;;2080022;28;20059;-73
2022/07/19 02:04:49;;;;;;;4.40;3.45;;;17.70;89.80;;;;;;2080854;28;20048;-74
2022/07/19 02:05:50;;;;;;;4.85;3.53;;;17.70;89.80;;;;;;2082582;28;20087;-73
2022/07/19 02:06:50;;;;;;;5.70;3.45;;;17.70;89.90;;;;;;2082950;28;20029;-73
2022/07/19 02:07:51;;;;;;;6.15;3.53;;;17.70;90.10;;;;;;2082819;28;20025;-74
2022/07/19 02:08:52;;;;;;;6.70;3.60;;;17.70;90.10;;;;;;2081076;28;20491;-74
2022/07/19 02:09:52;;;;;;;5.05;3.60;;;17.70;90.20;;;;;;2080693;28;20044;-74
2022/07/19 02:10:53;;;;;;;5.35;3.63;;;17.70;90.20;;;;;;2071868;28;20069;-74
2022/07/19 02:11:54;;;;;;;4.03;3.20;;;17.60;90.20;;;;;;2071782;28;20448;-74
2022/07/19 02:12:54;;;;;;;4.82;3.53;;;17.60;90.20;;;;;;2080215;28;20043;-73
2022/07/19 02:13:55;;;;;;;4.35;3.47;;;17.70;90.30;;;;;;2080479;28;20033;-74
2022/07/19 02:14:56;;;;;;;6.18;3.45;;;17.60;90.30;;;;;;2080594;28;20029;-74
2022/07/19 02:15:59;;;;;;;6.20;3.63;;;17.60;90.40;;;;;;2080855;28;20108;-74
2022/07/19 02:16:59;;;;;;;4.78;3.42;;;17.60;90.40;;;;;;2080368;28;20663;-74
2022/07/19 02:18:01;;;;;;;4.25;3.60;;;17.60;90.50;;;;;;2080303;28;20037;-74
2022/07/19 02:19:03;;;;;;;4.53;3.25;;;17.60;90.50;;;;;;2080500;28;20211;-74
2022/07/19 02:20:05;;;;;;;4.55;3.67;;;17.50;90.60;;;;;;2080704;28;20038;-74
2022/07/19 02:21:06;;;;;;;5.05;3.60;;;17.50;90.60;;;;;;2079890;28;20033;-74
2022/07/19 02:22:06;;;;;;;5.30;3.50;;;17.50;90.70;;;;;;2079692;28;20049;-74
2022/07/19 02:23:07;;;;;;;5.18;4.00;;;17.50;90.80;;;;;;2080456;28;20444;-73
2022/07/19 02:24:08;;;;;;;5.18;3.85;;;17.50;90.80;;;;;;2080290;28;20064;-73
2022/07/19 02:25:09;;;;;;;4.88;3.53;;;17.50;90.90;;;;;;2080313;28;20805;-73
2022/07/19 02:26:17;;;;;;;4.32;3.55;;;17.50;91.00;;;;;;2080996;28;20091;-74
2022/07/19 02:27:19;;;;;;;4.47;3.70;;;17.50;91.00;;;;;;2071031;28;20096;-73
2022/07/19 02:28:20;;;;;;;4.57;3.53;;;17.50;91.10;;;;;;2071502;28;20025;-74
2022/07/19 02:29:20;;;;;;;4.07;3.30;;;17.50;91.10;;;;;;2071556;28;20045;-73
2022/07/19 02:30:21;;;;;;;5.28;3.40;;;17.50;91.10;;;;;;2071843;28;20036;-74
2022/07/19 02:31:23;;;;;;;6.35;3.67;;;17.50;91.10;;;;;;2080541;28;20029;-73
2022/07/19 02:32:23;;;;;;;3.92;3.53;;;17.50;91.20;;;;;;2080368;28;20014;-73
2022/07/19 02:33:27;;;;;;;4.75;3.58;;;17.50;91.20;;;;;;2080529;28;20037;-73
2022/07/19 02:34:28;;;;;;;5.63;3.60;;;17.50;91.30;;;;;;2063580;28;20018;-74
2022/07/19 02:35:29;;;;;;;5.57;3.70;;;17.50;91.30;;;;;;2063416;28;20030;-74
2022/07/19 02:36:29;;;;;;;5.03;3.55;;;17.50;91.30;;;;;;2080450;28;20083;-74
2022/07/19 02:37:30;;;;;;;5.47;3.45;;;17.50;91.30;;;;;;2080231;28;20037;-74
2022/07/19 02:38:31;;;;;;;4.32;3.70;;;17.40;91.30;;;;;;2063202;28;20421;-74
2022/07/19 02:39:32;;;;;;;4.25;3.40;;;17.40;91.30;;;;;;2063887;28;20034;-75
2022/07/19 02:40:33;;;;;;;6.25;3.90;;;17.40;91.40;;;;;;2080278;28;20030;-75
2022/07/19 02:41:33;;;;;;;5.07;3.75;;;17.40;91.50;;;;;;2080501;28;20025;-75
2022/07/19 02:42:34;;;;;;;5.13;3.63;;;17.40;91.60;;;;;;2080868;28;20022;-75
2022/07/19 02:43:35;;;;;;;4.22;3.45;;;17.30;91.60;;;;;;2080567;28;20018;-74
2022/07/19 02:44:36;;;;;;;4.55;3.55;;;17.30;91.80;;;;;;2079622;28;20025;-74
2022/07/19 02:45:36;;;;;;;5.15;3.67;;;17.30;91.80;;;;;;2071328;28;20037;-74
2022/07/19 02:46:37;;;;;;;6.65;3.80;;;17.20;91.80;;;;;;2071860;28;20058;-74
2022/07/19 02:47:38;;;;;;;3.70;3.30;;;17.20;91.90;;;;;;2079533;28;20032;-73
2022/07/19 02:48:42;;;;;;;4.10;3.38;;;17.20;92.00;;;;;;2079308;28;20060;-74
2022/07/19 02:49:42;;;;;;;5.93;3.85;;;17.20;92.20;;;;;;2071733;28;20037;-74
2022/07/19 02:50:46;;;;;;;4.57;3.67;;;17.20;92.30;;;;;;2071695;28;20034;-73
2022/07/19 02:51:47;;;;;;;4.45;3.85;;;17.20;92.30;;;;;;2080198;28;20060;-73
2022/07/19 02:52:48;;;;;;;6.20;3.70;;;17.20;92.40;;;;;;2080129;28;20489;-73
2022/07/19 02:53:48;;;;;;;5.28;3.95;;;17.10;92.50;;;;;;2080164;28;20029;-75
2022/07/19 02:54:49;;;;;;;5.05;3.85;;;17.10;92.50;;;;;;2071275;28;20038;-75
2022/07/19 02:55:50;;;;;;;5.80;3.72;;;17.10;92.50;;;;;;2079632;28;20030;-74
2022/07/19 02:56:50;;;;;;;4.30;3.40;;;17.10;92.60;;;;;;2071332;28;20624;-75
2022/07/19 02:57:51;;;;;;;5.30;3.40;;;17.10;92.70;;;;;;2071429;28;20030;-75
2022/07/19 02:58:52;;;;;;;4.53;3.70;;;17.10;92.60;;;;;;2079877;28;20044;-74
2022/07/19 02:59:53;;;;;;;4.90;3.70;;;17.10;92.70;;;;;;2080356;28;20546;-75
2022/07/19 03:00:54;;;;;;;5.65;3.30;;;17.10;92.80;;;;;;2080095;28;20041;-76
2022/07/19 03:01:54;;;;;;;5.57;3.65;;;17.10;92.90;;;;;;2080273;28;20071;-74
2022/07/19 03:03:43;;;;;;;4.85;3.53;;;17.10;93.00;;;;;;2080024;28;20491;-73
2022/07/19 03:04:17;;;;;;;5.55;3.95;;;17.00;93.00;;;;;;2079831;28;20025;-74
2022/07/19 03:05:18;;;;;;;5.15;3.70;;;17.10;93.10;;;;;;2080159;28;20083;-75
2022/07/19 03:06:19;;;;;;;4.50;3.53;;;17.00;93.10;;;;;;2080499;28;20033;-73
2022/07/19 03:07:19;;;;;;;4.82;3.80;;;17.10;93.20;;;;;;2080006;28;20030;-74
2022/07/19 03:08:20;;;;;;;5.57;3.75;;;17.00;93.10;;;;;;2071517;28;20032;-72
2022/07/19 03:09:21;;;;;;;4.80;3.72;;;17.00;93.30;;;;;;2071653;28;20018;-73
2022/07/19 03:10:21;;;;;;;6.38;4.30;;;17.00;93.30;;;;;;2080115;28;20036;-73
2022/07/19 03:11:22;;;;;;;5.18;3.83;;;17.00;93.40;;;;;;2080529;28;20487;-73
2022/07/19 03:12:23;;;;;;;6.20;3.58;;;17.00;93.40;;;;;;2080143;28;20037;-73
2022/07/19 03:13:24;;;;;;;4.13;3.55;;;17.00;93.50;;;;;;2071241;28;20036;-74
2022/07/19 03:14:24;;;;;;;7.20;3.53;;;17.00;93.50;;;;;;2071375;28;20088;-73
2022/07/19 03:15:25;;;;;;;4.97;3.70;;;17.00;93.60;;;;;;2071425;28;20070;-73
2022/07/19 03:16:26;;;;;;;6.25;3.67;;;17.00;93.60;;;;;;2071252;28;20113;-74
2022/07/19 03:17:26;;;;;;;8.13;4.05;;;17.00;93.50;;;;;;2062911;28;20560;-73
2022/07/19 03:18:27;;;;;;;4.88;3.60;;;17.00;93.60;;;;;;2071109;28;20022;-75
2022/07/19 03:19:29;;;;;;;5.55;3.40;;;16.90;93.70;;;;;;2079933;28;20026;-73
2022/07/19 03:20:30;;;;;;;5.65;3.80;;;17.00;93.80;;;;;;2071255;28;20032;-73
2022/07/19 03:21:33;;;;;;;4.95;3.63;;;17.00;93.80;;;;;;2071323;28;20038;-73
2022/07/19 03:22:33;;;;;;;5.78;3.92;;;17.00;93.80;;;;;;2071178;28;20064;-73
2022/07/19 03:23:36;;;;;;;5.22;3.60;;;17.00;93.80;;;;;;2079206;28;20745;-72
2022/07/19 03:24:37;;;;;;;5.80;3.60;;;16.90;93.90;;;;;;2079798;28;20021;-72
2022/07/19 03:25:41;;;;;;;5.55;3.47;;;16.90;93.90;;;;;;2080278;28;20025;-74
2022/07/19 03:26:41;;;;;;;6.78;3.97;;;17.00;94.00;;;;;;2080101;28;20030;-73
2022/07/19 03:27:50;;;;;;;5.55;3.90;;;17.00;94.00;;;;;;2080271;28;20026;-73
2022/07/19 03:28:52;;;;;;;6.35;4.00;;;16.90;94.10;;;;;;2079752;28;20040;-73
2022/07/19 03:29:53;;;;;;;6.25;3.53;;;16.90;94.10;;;;;;2071582;28;20040;-73
2022/07/19 03:30:54;;;;;;;3.70;3.40;;;16.90;94.20;;;;;;2071096;28;20052;-74
2022/07/19 03:31:54;;;;;;;6.05;4.15;;;16.90;94.20;;;;;;2079855;28;20045;-74
2022/07/19 03:32:55;;;;;;;6.18;3.88;;;16.90;94.20;;;;;;2079853;28;20115;-73
2022/07/19 03:33:56;;;;;;;4.97;4.03;;;17.00;94.20;;;;;;2080115;28;20029;-73
2022/07/19 03:34:56;;;;;;;6.10;4.20;;;16.90;94.30;;;;;;2071269;28;20129;-73
2022/07/19 03:35:57;;;;;;;6.18;4.10;;;16.90;94.20;;;;;;2071126;28;20555;-73
2022/07/19 03:36:58;;;;;;;4.93;3.88;;;17.00;94.50;;;;;;2079147;28;20088;-74
2022/07/19 03:37:59;;;;;;;6.28;4.15;;;17.00;94.20;;;;;;2079901;28;20156;-74
2022/07/19 03:38:59;;;;;;;4.88;4.00;;;16.90;94.20;;;;;;2080480;28;20030;-73
2022/07/19 03:40:00;;;;;;;5.55;3.95;;;16.90;94.30;;;;;;2080506;28;20140;-73
2022/07/19 03:41:01;;;;;;;5.47;4.00;;;17.00;94.30;;;;;;2081496;28;20091;-73
2022/07/19 03:42:02;;;;;;;6.32;3.90;;;16.90;94.30;;;;;;2081426;28;20040;-74
2022/07/19 03:43:03;;;;;;;6.20;3.95;;;16.90;94.30;;;;;;2081354;28;20109;-74
2022/07/19 03:44:04;;;;;;;7.82;4.50;;;16.90;94.30;;;;;;2081437;28;20695;-74
2022/07/19 03:45:05;;;;;;;7.68;5.45;;;16.90;94.30;;;;;;2081548;28;20049;-74
2022/07/19 03:46:06;;;;;;;11.00;7.70;;;17.00;94.30;;;;;;2081158;28;20032;-74
2022/07/19 03:47:06;;;;;;;11.73;8.60;;;17.00;94.20;;;;;;2080953;28;20033;-74
2022/07/19 03:48:07;;;;;;;10.85;9.40;;;17.00;94.20;;;;;;2081234;28;20148;-74
2022/07/19 03:49:08;;;;;;;10.38;8.00;;;17.00;94.30;;;;;;2081377;28;20095;-74
2022/07/19 03:50:09;;;;;;;13.07;8.68;;;17.00;94.40;;;;;;2072108;28;20080;-74
2022/07/19 03:51:09;;;;;;;11.43;7.45;;;17.00;94.40;;;;;;2072707;28;20042;-74
2022/07/19 03:52:11;;;;;;;9.43;7.03;;;17.00;94.40;;;;;;2064542;28;20038;-74
2022/07/19 03:53:12;;;;;;;7.07;5.80;;;17.00;94.40;;;;;;2072481;28;20033;-75
2022/07/19 03:54:13;;;;;;;5.95;4.95;;;17.00;94.40;;;;;;2081020;28;20553;-74
2022/07/19 03:55:14;;;;;;;6.38;4.50;;;17.00;94.40;;;;;;2072827;28;20069;-74
2022/07/19 03:56:15;;;;;;;6.82;4.07;;;17.00;94.40;;;;;;2072698;28;20046;-74
2022/07/19 03:57:15;;;;;;;5.05;3.85;;;17.00;94.40;;;;;;2081152;28;20033;-74
2022/07/19 03:58:16;;;;;;;6.22;3.92;;;17.00;94.40;;;;;;2081338;28;20037;-74
2022/07/19 03:59:17;;;;;;;4.70;4.03;;;17.10;94.40;;;;;;2081644;28;20045;-73
2022/07/19 04:00:18;;;;;;;5.47;3.83;;;17.10;94.50;;;;;;2081569;28;20018;-73
2022/07/19 04:01:18;;;;;;;4.63;3.95;;;17.00;94.40;;;;;;2081422;28;20049;-73
2022/07/19 04:02:19;;;;;;;5.50;3.65;;;17.10;94.30;;;;;;2081227;28;20025;-73
2022/07/19 04:03:20;;;;;;;4.65;3.83;;;17.20;94.30;;;;;;2081447;28;20040;-73
2022/07/19 04:04:20;;;;;;;5.88;3.78;;;17.20;94.20;;;;;;2081184;28;20033;-73
2022/07/19 04:05:21;;;;;;;6.93;4.00;;;17.20;94.20;;;;;;2081424;28;20022;-73
2022/07/19 04:06:21;;;;;;;8.65;5.22;;;17.20;94.30;;;;;;2081248;28;20064;-73
2022/07/19 04:07:22;;;;;;;7.57;5.10;;;17.30;94.20;;;;;;2080973;28;20468;-73
2022/07/19 04:08:23;;;;;;;6.47;5.05;;;17.30;94.20;;;;;;2081197;28;20026;-73
2022/07/19 04:09:23;;;;;;;7.00;4.70;;;17.30;94.10;;;;;;2081387;28;20032;-73
2022/07/19 04:10:24;;;;;;;6.88;4.35;;;17.30;94.10;;;;;;2081197;28;20025;-73
2022/07/19 04:11:25;;;;;;;7.78;4.45;;;17.40;94.00;;;;;;2081398;28;20503;-73
2022/07/19 04:12:26;;;;;;;6.10;4.65;;;17.40;94.00;;;;;;2080886;28;20025;-74
2022/07/19 04:13:26;;;;;;;6.45;4.50;;;17.40;93.90;;;;;;2080873;28;20021;-73
2022/07/19 04:14:27;;;;;;;6.50;4.30;;;17.50;93.90;;;;;;2081433;28;20541;-75
2022/07/19 04:15:28;;;;;;;6.22;4.00;;;17.50;93.70;;;;;;2081406;28;20045;-74
2022/07/19 04:16:28;;;;;;;5.10;3.80;;;17.60;93.70;;;;;;2081407;28;20181;-74
2022/07/19 04:17:29;;;;;;;4.47;3.97;;;17.70;93.50;;;;;;2080986;28;20483;-75
2022/07/19 04:18:30;;;;;;;6.50;4.10;;;17.90;93.20;;;;;;2080990;28;20029;-74
2022/07/19 04:19:31;;;;;;;5.10;3.80;;;18.20;92.90;;;;;;2071690;28;20053;-75
2022/07/19 04:20:32;;;;;;;8.15;3.83;;;18.60;92.20;;;;;;2072211;28;20037;-74
2022/07/19 04:21:32;;;;;;;5.20;3.65;;;18.90;91.20;;;;;;2081128;28;20104;-74
2022/07/19 04:22:33;;;;;;;5.82;3.75;;;19.30;90.30;;;;;;2072227;28;20038;-74
2022/07/19 04:23:34;;;;;;;6.43;3.78;;;19.70;88.80;;;;;;2072397;28;20105;-72
2022/07/19 04:24:35;;;;;;;5.25;3.65;;;20.10;87.00;;;;;;2081226;28;20048;-73
2022/07/19 04:25:36;;;;;;;7.35;3.65;;;20.40;85.20;;;;;;2086092;28;20026;-73
2022/07/19 04:26:36;;;;;;;6.22;3.70;;;20.70;83.40;;;;;;2086111;28;20022;-73
2022/07/19 04:27:37;;;;;;;6.28;3.67;;;21.00;82.00;;;;;;2087073;28;20025;-72
2022/07/19 04:28:38;;;;;;;5.22;3.95;;;21.20;80.80;;;;;;2077578;28;20075;-73
2022/07/19 04:29:38;;;;;;;4.82;3.40;;;21.50;79.60;;;;;;2077097;28;20444;-73
2022/07/19 04:30:39;;;;;;;10.20;3.47;;;21.80;78.40;;;;;;2075169;28;20519;-73
2022/07/19 04:31:40;;;;;;;6.07;3.63;;;21.90;77.10;;;;;;2075978;28;20060;-73
2022/07/19 04:32:40;;;;;;;6.40;3.55;;;22.20;76.50;;;;;;2086195;28;20077;-73
2022/07/19 04:33:41;;;;;;;5.85;3.75;;;22.30;75.60;;;;;;2084364;28;20064;-73
2022/07/19 04:34:42;;;;;;;7.53;3.45;;;22.50;74.60;;;;;;2081852;28;20026;-74
2022/07/19 04:35:43;;;;;;;6.57;3.80;;;22.70;73.90;;;;;;2073426;28;20735;-75
2022/07/19 04:36:44;;;;;;;7.30;3.45;;;22.80;73.30;;;;;;2073128;28;20034;-74
2022/07/19 04:37:45;;;;;;;5.00;3.60;;;23.00;72.50;;;;;;2081672;28;20033;-74
2022/07/19 04:38:46;;;;;;;5.55;3.40;;;23.20;71.90;;;;;;2081866;28;20025;-75
2022/07/19 04:39:46;;;;;;;6.45;3.22;;;23.30;71.20;;;;;;2081107;28;20468;-75
2022/07/19 04:40:47;;;;;;;4.80;3.13;;;23.50;70.40;;;;;;2081495;28;20056;-73
2022/07/19 04:41:48;;;;;;;4.32;3.40;;;23.70;69.70;;;;;;2081170;28;20080;-74
2022/07/19 04:42:49;;;;;;;5.93;3.38;;;23.80;68.90;;;;;;2080874;28;20464;-73
2022/07/19 04:43:49;;;;;;;5.40;3.20;;;24.00;68.40;;;;;;2072962;28;20022;-73
2022/07/19 04:44:50;;;;;;;4.30;3.47;;;24.10;67.80;;;;;;2072833;28;20044;-74
2022/07/19 04:45:51;;;;;;;5.25;3.28;;;24.20;66.90;;;;;;2072559;28;20026;-74
2022/07/19 04:46:54;;;;;;;6.22;3.38;;;24.40;66.50;;;;;;2064307;28;20058;-74
2022/07/19 04:47:55;;;;;;;4.95;3.45;;;24.50;66.00;;;;;;2064652;28;20027;-74
2022/07/19 04:49:03;;;;;;;5.95;3.58;;;24.60;65.40;;;;;;2072737;28;20026;-74
2022/07/19 04:50:05;;;;;;;8.00;3.50;;;24.70;65.10;;;;;;2081656;28;20025;-74
2022/07/19 04:51:05;;;;;;;6.53;3.53;;;24.80;64.80;;;;;;2072031;28;20034;-74
2022/07/19 04:52:06;;;;;;;3.97;3.30;;;24.90;64.80;;;;;;2072843;28;20061;-74
2022/07/19 04:53:08;;;;;;;5.63;3.50;;;25.00;64.40;;;;;;2080413;28;20530;-74
2022/07/19 04:54:09;;;;;;;6.90;3.50;;;25.00;63.70;;;;;;2081163;28;20029;-74
2022/07/19 04:55:10;;;;;;;5.85;3.33;;;25.10;63.10;;;;;;2081764;28;20383;-73
2022/07/19 04:56:11;;;;;;;7.13;3.50;;;25.30;62.50;;;;;;2072874;28;20076;-72
2022/07/19 04:57:13;;;;;;;7.93;3.58;;;25.30;61.40;;;;;;2072559;28;20040;-73
2022/07/19 04:58:14;;;;;;;6.25;3.35;;;25.30;62.10;;;;;;2072501;28;20147;-72
2022/07/19 04:59:14;;;;;;;5.88;3.15;;;25.40;61.30;;;;;;2072414;28;20041;-73
2022/07/19 05:00:15;;;;;;;5.25;3.20;;;25.50;61.00;;;;;;2073216;28;20068;-73
2022/07/19 05:01:16;;;;;;;3.50;2.97;;;25.60;60.60;;;;;;2072825;28;20101;-74
2022/07/19 05:02:17;;;;;;;6.15;3.10;;;25.70;60.20;;;;;;2080869;28;20105;-74
2022/07/19 05:03:20;;;;;;;5.20;2.88;;;25.80;59.80;;;;;;2080943;28;20017;-74
2022/07/19 05:04:21;;;;;;;6.15;3.00;;;25.90;59.60;;;;;;2081230;28;20025;-73
2022/07/19 05:05:23;;;;;;;5.43;3.10;;;25.90;59.60;;;;;;2064146;28;20037;-74
2022/07/19 05:06:24;;;;;;;5.78;3.20;;;25.90;59.20;;;;;;2064235;28;20018;-74
2022/07/19 05:07:25;;;;;;;5.93;3.30;;;26.00;59.20;;;;;;2081231;28;20032;-75
2022/07/19 05:08:26;;;;;;;5.05;3.33;;;26.10;59.10;;;;;;2080795;28;20117;-74
2022/07/19 05:09:28;;;;;;;5.22;3.05;;;26.20;58.90;;;;;;2080976;28;20053;-74
2022/07/19 05:10:28;;;;;;;6.65;3.47;;;26.30;58.80;;;;;;2071866;28;20101;-74
2022/07/19 05:11:29;;;;;;;8.48;3.67;;;26.30;58.70;;;;;;2072229;28;20827;-74
2022/07/19 05:12:33;;;;;;;5.53;3.10;;;26.40;58.70;;;;;;2080831;28;20017;-74
2022/07/19 05:13:33;;;;;;;8.25;3.13;;;26.50;58.60;;;;;;2081202;28;20168;-74
2022/07/19 05:14:35;;;;;;;8.27;3.45;;;26.50;58.30;;;;;;2081502;28;20554;-73
2022/07/19 05:15:36;;;;;;;7.30;3.53;;;26.50;58.00;;;;;;2080892;28;20783;-69
2022/07/19 05:16:36;;;;;;;6.60;3.20;;;26.50;57.90;;;;;;2080307;28;20139;-70
2022/07/19 05:17:37;;;;;;;5.25;3.47;;;26.60;57.70;;;;;;2071772;28;20030;-70